Time;durP1;ratioP1;P1;durP2;ratioP2;P2;SDS_P1;SDS_P2;PMS_P1;PMS_P2;Temp;Humidity;BMP_temperature;BMP_pressure;BME280_temperature;BME280_humidity;BME280_pressure;Samples;Min_cycle;Max_cycle;Signal;HPM_P1;HPM_P2
2022/09/05 00:02:27;;;;;;;2.90;2.22;;;16.40;99.90;;;;;;6217425;23;19996;-88
2022/09/05 00:05:26;;;;;;;2.00;1.90;;;16.40;99.90;;;;;;6243810;23;20000;-88
2022/09/05 00:08:09;;;;;;;1.75;1.65;;;16.40;99.90;;;;;;6176173;23;20001;-87
2022/09/05 00:10:35;;;;;;;1.95;1.85;;;16.30;99.90;;;;;;6217086;23;20020;-89
2022/09/05 00:13:16;;;;;;;2.55;2.13;;;16.30;99.90;;;;;;6217005;23;20015;-88
2022/09/05 00:16:16;;;;;;;2.53;1.92;;;16.30;99.90;;;;;;6217330;23;19997;-87
2022/09/05 00:19:04;;;;;;;2.03;1.90;;;16.30;99.90;;;;;;6217397;23;20007;-87
2022/09/05 00:21:59;;;;;;;2.03;1.92;;;16.30;99.90;;;;;;6217213;23;19997;-87
2022/09/05 00:24:42;;;;;;;2.08;1.88;;;16.20;99.90;;;;;;6243198;23;20000;-87
2022/09/05 00:27:50;;;;;;;2.60;2.40;;;16.20;99.90;;;;;;6241666;23;19989;-87
2022/09/05 00:30:18;;;;;;;1.90;1.70;;;16.10;99.90;;;;;;6117611;23;20002;-88
2022/09/05 00:33:05;;;;;;;1.90;1.80;;;16.10;99.90;;;;;;6213669;23;20035;-90
2022/09/05 00:36:15;;;;;;;;;;;;;;;;;;;;;
2022/09/05 00:38:56;;;;;;;2.15;2.05;;;16.10;99.90;;;;;;6235644;23;20012;-90
2022/09/05 00:41:23;;;;;;;2.35;2.15;;;16.00;99.90;;;;;;6207616;23;20000;-90
2022/09/05 00:43:59;;;;;;;2.47;2.28;;;16.00;99.90;;;;;;6208600;23;20012;-88
2022/09/05 00:46:37;;;;;;;3.15;2.00;;;16.00;99.90;;;;;;6180943;23;20438;-88
2022/09/05 00:49:54;;;;;;;1.73;1.63;;;16.00;99.90;;;;;;6200194;23;20008;-88
2022/09/05 00:53:01;;;;;;;1.80;1.70;;;16.00;99.90;;;;;;6226041;23;20128;-90
2022/09/05 00:55:54;;;;;;;2.22;2.08;;;15.90;99.90;;;;;;6211319;23;20019;-89
2022/09/05 00:58:45;;;;;;;2.30;2.10;;;15.80;99.90;;;;;;6234092;23;20056;-90
2022/09/05 01:02:00;;;;;;;;;;;;;;;;;;;;;
2022/09/05 01:05:02;;;;;;;3.42;1.90;;;15.80;99.90;;;;;;6241638;23;20003;-88
2022/09/05 01:07:46;;;;;;;2.00;1.90;;;15.80;99.90;;;;;;6237310;23;20001;-88
2022/09/05 01:10:30;;;;;;;2.03;1.90;;;15.70;99.90;;;;;;6236370;23;20008;-89
2022/09/05 01:13:33;;;;;;;1.92;1.70;;;15.70;99.90;;;;;;6235020;23;20016;-89
2022/09/05 01:15:58;;;;;;;;;;;15.70;99.90;;;;;;6208503;23;20013;-88
2022/09/05 01:18:57;;;;;;;2.70;2.50;;;15.70;99.90;;;;;;6210853;23;19899;-87
2022/09/05 01:21:54;;;;;;;;;;;;;;;;;;;;;
2022/09/05 01:24:39;;;;;;;2.25;2.05;;;15.60;99.90;;;;;;6241642;23;20006;-87
2022/09/05 01:27:35;;;;;;;2.50;2.30;;;15.60;99.90;;;;;;6241202;23;20016;-89
2022/09/05 01:30:38;;;;;;;2.17;2.00;;;15.60;99.90;;;;;;6213487;23;20055;-89
2022/09/05 01:33:24;;;;;;;2.65;2.15;;;15.60;99.90;;;;;;6238527;23;20012;-89
2022/09/05 01:35:57;;;;;;;2.10;2.00;;;15.60;99.90;;;;;;6211986;23;20217;-89
2022/09/05 01:41:26;;;;;;;2.13;1.92;;;15.50;99.90;;;;;;6234698;22;20032;-88
2022/09/05 01:48:24;;;;;;;2.30;2.10;;;15.50;99.90;;;;;;6239438;22;20059;-87
2022/09/05 01:51:31;;;;;;;2.13;1.98;;;15.50;99.90;;;;;;6194872;23;20005;-86
2022/09/05 01:54:48;;;;;;;2.40;1.98;;;15.50;99.90;;;;;;6237090;22;20017;-87
2022/09/05 01:58:15;;;;;;;2.25;2.08;;;15.40;99.90;;;;;;6241010;22;20016;-87
2022/09/05 02:01:35;;;;;;;2.30;2.10;;;15.40;99.90;;;;;;6240641;22;20053;-86
2022/09/05 02:05:08;;;;;;;1.85;1.75;;;15.30;99.90;;;;;;6180219;23;20025;-86
2022/09/05 02:08:07;;;;;;;2.20;2.00;;;15.30;99.90;;;;;;6149291;23;19997;-86
2022/09/05 02:11:13;;;;;;;2.40;2.20;;;15.30;99.90;;;;;;6153907;23;20018;-87
2022/09/05 02:14:45;;;;;;;2.10;2.00;;;15.30;99.90;;;;;;6179836;23;20021;-87
2022/09/05 02:17:50;;;;;;;1.65;1.55;;;15.30;99.90;;;;;;6091606;23;20006;-87
2022/09/05 04:29:13;;;;;;;2.70;2.40;;;14.40;99.90;;;;;;6241913;22;20039;-87
2022/09/05 04:32:25;;;;;;;2.60;2.40;;;14.40;99.90;;;;;;6216727;23;20021;-86
2022/09/05 04:35:06;;;;;;;2.80;2.53;;;14.40;99.90;;;;;;6214918;23;20021;-86
2022/09/05 04:37:54;;;;;;;2.83;2.60;;;14.40;99.90;;;;;;6212162;23;20004;-87
2022/09/05 04:40:34;;;;;;;2.70;2.42;;;14.40;99.90;;;;;;6201448;23;20088;-86
2022/09/05 04:43:13;;;;;;;2.78;2.58;;;14.40;99.90;;;;;;6225736;23;20001;-86
2022/09/05 04:45:49;;;;;;;2.53;2.30;;;14.40;99.90;;;;;;6228732;23;20020;-86
2022/09/05 04:48:21;;;;;;;3.17;2.50;;;14.40;99.90;;;;;;6225707;23;20000;-86
2022/09/05 04:53:51;;;;;;;2.72;2.53;;;14.50;99.90;;;;;;6208454;23;20025;-81
2022/09/05 04:56:23;;;;;;;2.80;2.28;;;14.50;99.90;;;;;;6209346;23;20012;-81
2022/09/05 04:58:51;;;;;;;;;;;14.50;99.90;;;;;;6210646;23;20017;-81
2022/09/05 05:01:26;;;;;;;3.13;2.47;;;14.50;99.90;;;;;;6185600;23;19907;-81
2022/09/05 05:03:52;;;;;;;2.70;2.17;;;14.50;99.90;;;;;;6210528;23;19997;-81
2022/09/05 05:06:32;;;;;;;2.40;2.20;;;14.50;99.90;;;;;;6208165;23;20009;-81
2022/09/05 05:09:18;;;;;;;2.50;2.30;;;14.50;99.90;;;;;;6202993;23;20016;-82
2022/09/05 05:12:23;;;;;;;2.20;2.10;;;14.50;99.90;;;;;;6221637;23;20033;-82
2022/09/05 05:14:59;;;;;;;2.10;1.90;;;14.50;99.90;;;;;;6080720;23;20018;-81
2022/09/05 05:17:34;;;;;;;2.17;2.00;;;14.60;99.90;;;;;;6191968;23;20005;-80
2022/09/05 05:20:20;;;;;;;2.60;2.22;;;14.60;99.90;;;;;;6211858;23;20011;-80
2022/09/05 05:22:57;;;;;;;2.67;2.25;;;14.70;99.90;;;;;;6146705;23;20012;-79
2022/09/05 05:25:25;;;;;;;2.45;2.10;;;14.70;99.90;;;;;;6212507;23;20001;-79
2022/09/05 05:28:12;;;;;;;2.15;2.05;;;14.80;99.90;;;;;;6212640;23;20009;-79
2022/09/05 05:30:39;;;;;;;2.15;1.95;;;14.80;99.90;;;;;;6212922;23;20127;-79
2022/09/05 05:33:25;;;;;;;2.22;2.03;;;14.80;99.90;;;;;;6212926;23;20004;-80
2022/09/05 05:35:53;;;;;;;2.30;2.20;;;14.90;99.90;;;;;;6211854;23;20088;-79
2022/09/05 05:38:36;;;;;;;1.92;1.83;;;14.90;99.90;;;;;;6210557;23;20008;-80
2022/09/05 05:41:20;;;;;;;2.38;2.17;;;15.00;99.90;;;;;;6209952;23;20001;-80
2022/09/05 05:43:47;;;;;;;2.08;1.90;;;15.10;99.90;;;;;;6205367;23;20077;-80
2022/09/05 05:46:28;;;;;;;2.30;2.10;;;15.20;99.90;;;;;;6199261;23;20025;-81
2022/09/05 05:49:06;;;;;;;2.17;1.92;;;15.30;99.90;;;;;;6200767;23;20032;-80
2022/09/05 05:51:41;;;;;;;3.55;2.55;;;15.30;99.90;;;;;;6211788;23;20008;-81
2022/09/05 05:54:27;;;;;;;2.95;2.65;;;15.40;99.90;;;;;;6230088;23;20069;-81
2022/09/05 05:56:56;;;;;;;3.65;2.30;;;15.50;99.90;;;;;;6228908;23;19997;-84
2022/09/05 05:59:30;;;;;;;2.55;2.30;;;15.60;99.90;;;;;;6204183;23;20000;-81
2022/09/05 06:02:28;;;;;;;5.38;3.00;;;15.70;99.90;;;;;;6201146;23;20466;-81
2022/09/05 06:05:13;;;;;;;3.63;2.35;;;15.90;99.90;;;;;;6169213;23;20012;-81
2022/09/05 06:08:20;;;;;;;3.00;2.60;;;16.10;99.90;;;;;;6225414;23;20004;-82
2022/09/05 06:11:13;;;;;;;5.05;2.33;;;16.30;99.90;;;;;;6225568;23;20005;-82
2022/09/05 06:14:15;;;;;;;3.13;2.42;;;16.40;99.90;;;;;;6224224;23;20339;-82
2022/09/05 06:17:07;;;;;;;2.78;2.47;;;16.60;99.90;;;;;;6224356;23;19997;-82
2022/09/05 06:19:33;;;;;;;2.75;2.50;;;16.70;99.90;;;;;;6198646;23;20008;-81
2022/09/05 06:22:27;;;;;;;2.75;2.55;;;16.90;99.90;;;;;;6228641;23;20457;-79
2022/09/05 06:25:34;;;;;;;3.80;2.40;;;16.90;99.90;;;;;;6231722;23;20000;-80
2022/09/05 06:28:14;;;;;;;2.97;2.47;;;17.00;99.90;;;;;;6075748;23;20011;-81
2022/09/05 06:30:49;;;;;;;3.38;2.78;;;17.10;99.90;;;;;;6073027;23;20070;-81
2022/09/05 06:33:23;;;;;;;4.05;2.65;;;17.20;99.90;;;;;;6164464;23;20051;-81
2022/09/05 06:35:59;;;;;;;4.72;2.78;;;17.30;99.90;;;;;;6194152;23;20009;-81
2022/09/05 06:38:44;;;;;;;3.35;2.58;;;17.40;99.90;;;;;;6221432;23;20001;-82
2022/09/05 06:41:25;;;;;;;4.35;3.20;;;17.50;99.90;;;;;;6221001;23;20012;-80
2022/09/05 06:44:22;;;;;;;5.82;3.10;;;17.60;99.90;;;;;;6205417;23;20546;-81
2022/09/05 06:46:54;;;;;;;3.03;2.30;;;17.80;99.50;;;;;;6218617;23;20112;-82
2022/09/05 06:49:32;;;;;;;;;;;17.90;98.80;;;;;;6225576;23;20079;-82
2022/09/05 06:52:17;;;;;;;2.20;1.83;;;18.10;98.30;;;;;;6218646;23;19907;-81
2022/09/05 06:54:45;;;;;;;3.53;2.67;;;18.40;97.70;;;;;;6224771;23;20011;-81
2022/09/05 06:57:38;;;;;;;3.47;2.88;;;18.50;96.60;;;;;;6225733;23;20443;-82
2022/09/05 07:00:43;;;;;;;6.22;2.80;;;18.70;95.90;;;;;;6222223;23;19996;-81
2022/09/05 07:03:36;;;;;;;3.88;2.75;;;18.70;95.30;;;;;;6214052;23;20083;-82
2022/09/05 07:06:34;;;;;;;3.80;2.38;;;18.70;95.10;;;;;;6217296;23;20001;-79
2022/09/05 07:09:31;;;;;;;3.70;2.10;;;18.70;95.00;;;;;;6228982;23;19997;-81
2022/09/05 07:12:18;;;;;;;2.38;2.17;;;18.90;95.10;;;;;;6226985;23;20025;-81
2022/09/05 07:14:57;;;;;;;2.20;2.08;;;19.10;94.60;;;;;;6224167;23;19997;-81
2022/09/05 07:17:38;;;;;;;2.88;1.95;;;19.20;94.00;;;;;;6224896;23;20003;-82
2022/09/05 07:20:35;;;;;;;2.40;2.20;;;19.40;93.50;;;;;;6227195;23;20001;-80
2022/09/05 07:23:32;;;;;;;2.72;2.33;;;19.50;93.00;;;;;;6201772;23;20031;-82
2022/09/05 07:25:58;;;;;;;3.60;2.72;;;19.40;92.80;;;;;;6226338;23;20001;-80
2022/09/05 07:28:25;;;;;;;3.17;2.50;;;19.20;92.90;;;;;;6226480;23;20007;-82
2022/09/05 07:31:06;;;;;;;6.72;2.65;;;19.20;93.20;;;;;;6200539;23;19996;-82
2022/09/05 07:33:38;;;;;;;3.85;2.60;;;19.10;93.50;;;;;;6228283;23;20340;-81
2022/09/05 07:36:31;;;;;;;2.80;2.28;;;19.20;93.40;;;;;;6224832;23;20024;-82
2022/09/05 07:39:00;;;;;;;2.95;2.25;;;19.20;93.30;;;;;;6227837;23;20059;-81
2022/09/05 07:41:33;;;;;;;3.88;2.15;;;19.30;93.40;;;;;;6228778;23;20008;-81
2022/09/05 07:44:09;;;;;;;2.08;1.92;;;19.50;93.10;;;;;;6229687;23;20001;-81
2022/09/05 07:46:39;;;;;;;4.47;2.30;;;19.70;92.30;;;;;;6228300;23;20056;-81
2022/09/05 07:49:11;;;;;;;4.05;2.05;;;19.80;91.80;;;;;;6227747;23;20028;-80
2022/09/05 07:51:45;;;;;;;2.42;2.22;;;19.90;91.60;;;;;;6225511;23;20055;-82
2022/09/05 07:54:24;;;;;;;1.90;1.80;;;19.90;91.40;;;;;;6226469;23;20016;-80
2022/09/05 07:57:03;;;;;;;1.98;1.77;;;20.10;91.30;;;;;;6199606;23;20084;-80
2022/09/05 07:59:34;;;;;;;1.90;1.80;;;20.30;90.80;;;;;;6222570;23;20000;-80
2022/09/05 08:02:01;;;;;;;2.10;1.90;;;20.50;90.50;;;;;;6222414;23;20055;-81
2022/09/05 08:04:28;;;;;;;3.08;2.00;;;20.70;90.00;;;;;;6237344;23;19993;-79
2022/09/05 08:06:57;;;;;;;5.50;2.08;;;20.80;88.90;;;;;;6242934;23;19999;-78
2022/09/05 08:09:54;;;;;;;2.20;2.00;;;20.80;88.30;;;;;;6236147;23;20012;-82
2022/09/05 08:12:53;;;;;;;2.35;2.15;;;20.80;88.60;;;;;;6209813;23;20019;-81
2022/09/05 08:15:26;;;;;;;2.85;1.90;;;21.00;87.70;;;;;;6172018;23;20032;-80
2022/09/05 08:18:20;;;;;;;2.53;2.33;;;21.20;86.20;;;;;;6229680;23;20029;-81
2022/09/05 08:21:12;;;;;;;3.55;2.05;;;21.30;84.90;;;;;;6228189;23;20019;-80
2022/09/05 08:23:41;;;;;;;3.17;1.65;;;21.50;83.90;;;;;;6226121;23;20004;-80
2022/09/05 08:26:11;;;;;;;2.00;1.80;;;21.90;83.10;;;;;;6227979;23;20004;-82
2022/09/05 08:28:54;;;;;;;1.63;1.52;;;22.10;81.20;;;;;;6224884;23;20311;-82
2022/09/05 08:31:37;;;;;;;2.03;1.92;;;21.90;80.60;;;;;;6198400;23;20047;-80
2022/09/05 08:34:10;;;;;;;2.38;2.17;;;21.80;80.70;;;;;;6227261;23;20024;-81
2022/09/05 08:36:47;;;;;;;1.85;1.75;;;21.70;80.90;;;;;;6226772;23;20012;-81
2022/09/05 08:39:19;;;;;;;1.98;1.88;;;21.90;81.10;;;;;;6199657;23;20138;-81
2022/09/05 08:42:14;;;;;;;1.88;1.77;;;22.00;80.30;;;;;;6226984;23;20001;-81
2022/09/05 08:45:20;;;;;;;1.75;1.65;;;22.20;79.00;;;;;;6226771;23;20371;-81
2022/09/05 08:47:52;;;;;;;2.08;1.90;;;22.60;78.10;;;;;;6199023;23;20019;-82
2022/09/05 08:50:46;;;;;;;1.73;1.63;;;22.90;77.00;;;;;;6227311;23;20011;-81
2022/09/05 08:53:47;;;;;;;3.05;2.05;;;23.20;75.70;;;;;;6227216;23;20060;-82
2022/09/05 08:56:27;;;;;;;2.00;1.90;;;23.50;73.90;;;;;;6204197;23;20007;-81
2022/09/05 08:59:01;;;;;;;2.40;2.20;;;23.60;73.30;;;;;;6232102;23;20028;-81
2022/09/05 09:01:33;;;;;;;2.70;1.83;;;23.80;72.50;;;;;;6227534;23;20024;-81
2022/09/05 09:04:37;;;;;;;2.20;1.83;;;23.90;71.50;;;;;;6198224;23;20005;-80
2022/09/05 09:07:20;;;;;;;2.53;2.08;;;23.90;71.80;;;;;;6196065;23;20028;-81
2022/09/05 09:10:03;;;;;;;2.45;2.05;;;24.20;71.50;;;;;;6224192;23;20016;-81
2022/09/05 09:13:03;;;;;;;2.33;2.20;;;24.20;69.80;;;;;;6198517;23;20122;-80
2022/09/05 09:15:46;;;;;;;2.90;1.90;;;24.50;69.80;;;;;;6201787;23;20008;-81
2022/09/05 09:18:17;;;;;;;1.77;1.63;;;24.80;68.10;;;;;;6200889;23;20001;-81
2022/09/05 09:20:54;;;;;;;1.75;1.65;;;25.10;66.90;;;;;;6226057;23;20055;-81
2022/09/05 09:23:46;;;;;;;2.95;1.88;;;25.40;66.40;;;;;;6200242;23;20005;-81
2022/09/05 09:26:17;;;;;;;2.13;1.80;;;25.40;65.80;;;;;;6201402;23;20008;-81
2022/09/05 09:28:44;;;;;;;;;;;25.50;65.20;;;;;;6229556;23;20012;-81
2022/09/05 09:31:16;;;;;;;2.20;2.08;;;25.50;64.80;;;;;;6222750;23;19904;-81
2022/09/05 09:34:24;;;;;;;1.88;1.45;;;25.70;64.30;;;;;;6228211;23;20014;-81
2022/09/05 09:36:55;;;;;;;2.55;1.80;;;25.80;63.50;;;;;;6198759;23;20008;-80
2022/09/05 09:39:26;;;;;;;2.15;2.05;;;25.90;62.70;;;;;;6228662;23;20024;-79
2022/09/05 09:42:20;;;;;;;2.33;1.75;;;26.00;62.40;;;;;;6227749;23;20000;-81
2022/09/05 09:45:15;;;;;;;2.05;1.85;;;26.20;61.70;;;;;;6223459;23;20000;-80
2022/09/05 09:47:49;;;;;;;3.30;1.70;;;26.40;60.40;;;;;;6223970;23;20000;-81
2022/09/05 09:50:33;;;;;;;1.55;1.45;;;26.10;60.20;;;;;;6224719;23;20000;-82
2022/09/05 09:53:14;;;;;;;1.60;1.50;;;26.00;61.00;;;;;;6225831;23;20060;-81
2022/09/05 09:55:58;;;;;;;1.73;1.63;;;26.20;61.20;;;;;;6226504;23;20033;-81
2022/09/05 09:58:38;;;;;;;1.75;1.65;;;26.40;59.90;;;;;;6222772;23;19997;-82
2022/09/05 10:01:23;;;;;;;1.52;1.42;;;26.60;59.50;;;;;;6222770;23;20057;-81
2022/09/05 10:04:10;;;;;;;2.80;1.88;;;26.70;59.20;;;;;;6223310;23;20004;-82
2022/09/05 10:06:55;;;;;;;4.32;1.95;;;26.80;58.90;;;;;;6222855;23;20410;-82
2022/09/05 10:09:44;;;;;;;2.17;1.85;;;26.80;58.60;;;;;;6196319;23;20092;-81
2022/09/05 10:12:35;;;;;;;2.63;2.03;;;26.70;58.50;;;;;;6223998;23;20026;-80
2022/09/05 10:15:07;;;;;;;2.22;1.75;;;26.60;58.80;;;;;;6223797;23;20288;-82
2022/09/05 10:17:52;;;;;;;6.57;2.22;;;26.70;58.70;;;;;;6196380;23;20340;-81
2022/09/05 10:20:42;;;;;;;2.17;1.95;;;26.70;58.90;;;;;;6223763;23;19997;-82
2022/09/05 10:23:47;;;;;;;1.80;1.70;;;26.80;59.50;;;;;;6223631;23;19997;-82
2022/09/05 10:26:31;;;;;;;2.63;1.80;;;26.80;59.70;;;;;;6121886;23;20001;-82
2022/09/05 10:29:13;;;;;;;2.35;1.90;;;26.70;59.50;;;;;;6196158;23;20008;-81
2022/09/05 10:31:58;;;;;;;3.50;1.50;;;26.80;59.00;;;;;;6196169;23;20383;-81
2022/09/05 10:34:30;;;;;;;2.03;1.88;;;26.80;59.30;;;;;;6223875;23;20077;-83
2022/09/05 10:37:08;;;;;;;1.90;1.80;;;26.90;58.80;;;;;;6225165;23;20019;-83
2022/09/05 10:39:38;;;;;;;2.58;1.55;;;26.90;58.70;;;;;;6226007;23;19999;-81
2022/09/05 10:42:21;;;;;;;3.47;1.90;;;27.00;58.60;;;;;;6223168;23;20052;-82
2022/09/05 10:44:57;;;;;;;2.30;1.90;;;27.00;58.00;;;;;;6230185;23;20439;-79
2022/09/05 10:47:31;;;;;;;2.20;2.00;;;27.00;58.10;;;;;;6236567;23;20000;-81
2022/09/05 10:50:25;;;;;;;2.30;1.90;;;27.00;58.40;;;;;;6236674;23;20014;-80
2022/09/05 10:52:54;;;;;;;1.98;1.88;;;27.10;57.40;;;;;;6206476;23;20033;-85
2022/09/05 10:55:32;;;;;;;1.80;1.70;;;26.90;57.70;;;;;;6233314;23;20036;-86
2022/09/05 10:58:16;;;;;;;2.03;1.92;;;26.90;57.90;;;;;;6231660;23;20015;-88
2022/09/05 11:01:05;;;;;;;1.90;1.80;;;27.20;57.70;;;;;;6215459;23;20020;-86
2022/09/05 11:03:51;;;;;;;1.95;1.85;;;27.20;57.70;;;;;;6162572;23;20009;-85
2022/09/05 11:06:49;;;;;;;2.20;2.05;;;27.20;57.80;;;;;;6159731;23;20010;-86
2022/09/05 11:09:31;;;;;;;2.88;2.03;;;27.20;57.60;;;;;;6083152;23;20021;-87
2022/09/05 11:12:17;;;;;;;1.95;1.85;;;27.30;57.20;;;;;;6187946;23;20118;-86
2022/09/05 11:14:52;;;;;;;1.77;1.67;;;27.10;58.10;;;;;;6185521;23;20013;-86
2022/09/05 11:17:39;;;;;;;1.65;1.55;;;27.20;58.00;;;;;;6166796;23;20012;-87
2022/09/05 11:20:42;;;;;;;2.03;1.83;;;27.20;57.70;;;;;;6164549;23;20409;-86
2022/09/05 11:23:15;;;;;;;1.75;1.65;;;27.40;57.50;;;;;;6192079;23;20062;-86
2022/09/05 11:25:43;;;;;;;2.40;1.60;;;27.60;56.60;;;;;;6194930;23;20021;-87
2022/09/05 11:28:17;;;;;;;2.30;1.90;;;27.60;56.30;;;;;;6204040;23;20009;-88
2022/09/05 11:30:50;;;;;;;2.25;1.58;;;27.60;55.70;;;;;;6191835;23;20009;-86
2022/09/05 11:33:45;;;;;;;2.30;1.90;;;27.50;56.30;;;;;;6203319;23;20013;-88
2022/09/05 11:36:11;;;;;;;5.07;2.28;;;27.60;56.40;;;;;;6200001;23;20192;-86
2022/09/05 11:38:59;;;;;;;2.65;2.08;;;28.00;55.80;;;;;;6162799;23;20028;-86
2022/09/05 11:41:37;;;;;;;1.85;1.67;;;28.00;54.50;;;;;;6186675;23;20009;-87
2022/09/05 11:44:24;;;;;;;1.90;1.80;;;27.80;54.90;;;;;;6188170;23;20011;-86
2022/09/05 11:46:55;;;;;;;2.15;1.95;;;27.70;55.30;;;;;;6184783;23;20012;-86
2022/09/05 11:49:49;;;;;;;4.70;1.80;;;27.70;55.40;;;;;;6188928;23;20384;-86
2022/09/05 11:52:21;;;;;;;1.85;1.75;;;27.70;55.90;;;;;;6186632;23;20017;-88
2022/09/05 11:55:06;;;;;;;;;;;27.70;56.80;;;;;;6188967;23;20009;-86
2022/09/05 11:58:00;;;;;;;2.33;1.88;;;27.80;56.50;;;;;;6163511;23;19907;-85
2022/09/05 12:00:50;;;;;;;2.30;2.10;;;27.80;56.80;;;;;;6187392;23;20445;-86
2022/09/05 12:03:37;;;;;;;1.95;1.77;;;27.90;56.40;;;;;;6190032;23;19993;-87
2022/09/05 12:06:16;;;;;;;1.83;1.73;;;28.00;56.00;;;;;;6191423;23;20012;-87
2022/09/05 12:09:04;;;;;;;3.65;2.25;;;28.00;55.80;;;;;;6189533;23;20005;-86
2022/09/05 12:12:01;;;;;;;2.30;1.80;;;28.00;54.90;;;;;;6197879;23;20363;-89
2022/09/05 12:14:37;;;;;;;2.83;1.50;;;28.10;55.10;;;;;;6193580;23;20009;-86
2022/09/05 12:17:17;;;;;;;2.47;2.08;;;28.10;53.80;;;;;;6207848;23;20017;-88
2022/09/05 12:19:53;;;;;;;2.90;1.90;;;28.00;54.40;;;;;;6198105;23;20092;-86
2022/09/05 12:22:28;;;;;;;2.58;2.10;;;28.10;54.00;;;;;;6195556;23;20021;-86
2022/09/05 12:25:09;;;;;;;2.08;1.65;;;28.10;54.30;;;;;;6167605;23;20001;-87
2022/09/05 12:27:38;;;;;;;2.03;1.85;;;28.00;53.80;;;;;;6168063;23;20003;-87
2022/09/05 12:30:10;;;;;;;2.75;1.90;;;28.00;54.20;;;;;;6192306;23;20005;-87
2022/09/05 12:32:57;;;;;;;2.65;2.45;;;28.00;54.30;;;;;;6169371;23;20318;-86
2022/09/05 12:35:30;;;;;;;2.05;1.95;;;28.10;53.80;;;;;;6168909;23;20025;-86
2022/09/05 12:38:20;;;;;;;1.70;1.60;;;28.20;53.70;;;;;;6192051;23;20006;-86
2022/09/05 12:41:12;;;;;;;2.15;1.83;;;28.40;53.50;;;;;;6190842;23;20035;-86
2022/09/05 12:44:02;;;;;;;2.05;1.95;;;28.60;53.40;;;;;;6162174;23;20006;-87
2022/09/05 12:46:49;;;;;;;2.83;1.70;;;28.60;53.40;;;;;;6127561;23;20005;-86
2022/09/05 12:49:55;;;;;;;1.85;1.73;;;28.50;53.30;;;;;;6166052;23;20071;-86
2022/09/05 12:52:32;;;;;;;2.00;1.90;;;28.40;53.80;;;;;;6185866;23;19989;-85
2022/09/05 12:55:18;;;;;;;2.00;1.90;;;28.60;53.80;;;;;;6172623;23;20080;-86
2022/09/05 12:57:48;;;;;;;3.30;2.00;;;28.60;53.40;;;;;;6202633;23;20005;-87
2022/09/05 13:00:20;;;;;;;2.28;1.90;;;28.60;53.60;;;;;;6208089;23;20052;-87
2022/09/05 13:02:58;;;;;;;2.15;2.05;;;28.70;53.20;;;;;;6182667;23;19993;-86
2022/09/05 13:05:50;;;;;;;1.77;1.67;;;28.80;52.80;;;;;;6182865;23;20016;-87
2022/09/05 13:08:20;;;;;;;2.13;1.63;;;28.80;53.00;;;;;;6161330;23;20016;-87
2022/09/05 13:10:53;;;;;;;1.80;1.70;;;28.90;53.00;;;;;;6172735;23;20061;-85
2022/09/05 13:13:33;;;;;;;2.50;1.70;;;28.80;52.20;;;;;;6168973;23;20415;-86
2022/09/05 13:16:02;;;;;;;1.70;1.60;;;28.60;50.40;;;;;;6167866;23;20459;-86
2022/09/05 13:18:37;;;;;;;3.40;1.80;;;28.30;51.70;;;;;;6167170;23;20013;-86
2022/09/05 13:21:14;;;;;;;3.35;2.65;;;28.20;52.60;;;;;;6169060;23;20051;-86
2022/09/05 13:24:08;;;;;;;2.10;1.88;;;28.00;52.40;;;;;;6199536;23;20008;-86
2022/09/05 13:26:39;;;;;;;8.82;2.33;;;28.20;52.80;;;;;;6169273;23;20052;-86
2022/09/05 13:29:14;;;;;;;1.80;1.70;;;28.40;53.10;;;;;;6172536;23;20028;-86
2022/09/05 13:31:40;;;;;;;2.40;1.70;;;28.60;52.70;;;;;;6170256;23;20069;-86
2022/09/05 13:34:26;;;;;;;1.83;1.73;;;28.80;52.30;;;;;;6169269;23;19997;-86
2022/09/05 13:37:06;;;;;;;2.00;1.80;;;28.80;51.90;;;;;;6155064;23;20005;-86
2022/09/05 13:39:44;;;;;;;2.17;2.00;;;28.80;51.80;;;;;;6170723;23;20017;-86
2022/09/05 13:42:17;;;;;;;2.97;1.60;;;28.60;51.90;;;;;;6172976;23;20001;-86
2022/09/05 13:44:47;;;;;;;1.77;1.67;;;28.00;53.20;;;;;;6172355;23;20005;-87
2022/09/05 13:47:31;;;;;;;2.85;1.67;;;27.40;53.60;;;;;;6194933;23;19997;-86
2022/09/05 13:50:03;;;;;;;2.03;1.80;;;27.00;55.00;;;;;;6166625;23;20043;-86
2022/09/05 13:52:41;;;;;;;1.75;1.65;;;27.00;54.10;;;;;;6168404;23;20079;-86
2022/09/05 13:55:26;;;;;;;3.50;1.88;;;27.20;53.90;;;;;;6194554;23;19997;-87
2022/09/05 13:58:20;;;;;;;1.77;1.60;;;27.60;53.70;;;;;;6169249;23;20075;-86
2022/09/05 14:01:22;;;;;;;2.50;2.03;;;27.70;52.70;;;;;;6172186;23;20020;-86
2022/09/05 14:04:12;;;;;;;2.15;2.00;;;27.60;53.20;;;;;;6171059;23;20020;-87
2022/09/05 14:06:46;;;;;;;2.55;1.90;;;27.40;53.70;;;;;;6196422;23;20011;-86
2022/09/05 14:09:40;;;;;;;1.90;1.80;;;27.10;53.90;;;;;;6173174;23;20052;-86
2022/09/05 14:12:37;;;;;;;2.47;1.70;;;27.10;55.20;;;;;;6178000;23;20021;-87
2022/09/05 14:15:22;;;;;;;3.55;1.98;;;27.40;54.70;;;;;;6207614;23;20005;-86
2022/09/05 14:18:10;;;;;;;2.35;1.75;;;27.90;53.70;;;;;;6185544;23;20015;-87
2022/09/05 14:23:52;;;;;;;4.20;1.50;;;28.40;51.50;;;;;;6210892;23;20016;-87
2022/09/05 14:26:29;;;;;;;2.78;2.40;;;28.30;51.60;;;;;;6182520;23;19993;-88
2022/09/05 14:29:01;;;;;;;2.17;1.98;;;28.30;52.50;;;;;;6182242;23;20009;-86
2022/09/05 14:31:38;;;;;;;4.05;1.60;;;28.70;51.50;;;;;;6206619;23;20020;-87
2022/09/05 14:34:28;;;;;;;1.70;1.60;;;28.80;50.50;;;;;;6207815;23;20008;-86
2022/09/05 14:37:13;;;;;;;2.03;1.92;;;28.90;50.50;;;;;;6180915;23;20001;-86
2022/09/05 14:39:59;;;;;;;3.15;1.90;;;29.20;50.70;;;;;;6180631;23;20005;-86
2022/09/05 14:42:53;;;;;;;1.83;1.70;;;29.10;50.20;;;;;;6194740;23;20092;-87
2022/09/05 14:45:43;;;;;;;3.47;1.98;;;28.70;50.90;;;;;;6192136;23;20336;-87
2022/09/05 14:48:43;;;;;;;3.95;2.00;;;28.40;50.00;;;;;;6165011;23;20089;-86
2022/09/05 14:51:29;;;;;;;2.00;1.80;;;28.00;51.40;;;;;;6196543;23;20013;-84
2022/09/05 14:53:54;;;;;;;2.85;1.60;;;28.30;51.60;;;;;;6196896;23;20024;-86
2022/09/05 14:56:44;;;;;;;1.63;1.52;;;28.60;50.70;;;;;;6168257;23;20008;-86
2022/09/05 14:59:18;;;;;;;4.20;2.15;;;28.90;50.00;;;;;;6168213;23;20104;-86
2022/09/05 15:02:34;;;;;;;1.52;1.42;;;29.00;49.10;;;;;;6194014;23;20051;-86
2022/09/05 15:05:08;;;;;;;3.53;1.60;;;29.00;49.00;;;;;;6128325;23;20008;-85
2022/09/05 15:07:33;;;;;;;1.67;1.40;;;28.60;49.50;;;;;;6167455;23;20020;-86
2022/09/05 15:10:18;;;;;;;1.77;1.67;;;28.20;50.30;;;;;;6166402;23;20340;-86
2022/09/05 15:12:47;;;;;;;2.72;1.60;;;28.10;50.70;;;;;;6165677;23;20009;-86
2022/09/05 15:15:29;;;;;;;2.08;1.90;;;27.90;51.40;;;;;;6170606;23;20285;-86
2022/09/05 15:18:09;;;;;;;2.00;1.90;;;27.70;51.80;;;;;;6205574;23;20013;-86
2022/09/05 15:20:40;;;;;;;3.72;1.95;;;27.30;52.90;;;;;;6178262;23;20001;-88
2022/09/05 15:23:17;;;;;;;2.35;2.00;;;27.10;53.30;;;;;;6207333;23;20001;-87
2022/09/05 15:25:50;;;;;;;2.08;1.98;;;26.80;53.80;;;;;;6205094;23;20052;-87
2022/09/05 15:28:42;;;;;;;2.70;1.77;;;26.70;54.60;;;;;;6182751;23;20061;-88
2022/09/05 15:31:19;;;;;;;2.30;1.52;;;26.60;54.90;;;;;;6177334;23;20005;-87
2022/09/05 15:33:51;;;;;;;2.15;1.60;;;26.50;55.00;;;;;;6172787;23;20502;-87
2022/09/05 15:36:40;;;;;;;2.20;1.95;;;26.60;55.00;;;;;;6170712;23;20021;-86
2022/09/05 15:39:34;;;;;;;1.95;1.70;;;27.10;54.50;;;;;;6172181;23;20015;-87
2022/09/05 15:42:25;;;;;;;2.53;1.52;;;27.50;53.40;;;;;;6170067;23;20131;-86
2022/09/05 15:44:59;;;;;;;2.78;1.58;;;27.50;53.00;;;;;;6170008;23;20005;-87
2022/09/05 15:47:25;;;;;;;2.42;1.50;;;27.20;53.60;;;;;;6170945;23;20002;-84
2022/09/05 15:49:58;;;;;;;1.58;1.48;;;27.00;54.20;;;;;;6169366;23;20012;-91
2022/09/05 15:52:25;;;;;;;1.60;1.50;;;26.80;55.00;;;;;;6169586;23;20024;-88
2022/09/05 15:55:10;;;;;;;2.13;1.98;;;26.80;55.20;;;;;;6169340;23;20008;-86
2022/09/05 15:57:44;;;;;;;2.20;2.00;;;26.90;55.10;;;;;;6168176;23;20012;-88
2022/09/05 16:00:24;;;;;;;3.28;1.92;;;27.00;55.00;;;;;;6168247;23;20009;-88
2022/09/05 16:02:50;;;;;;;2.10;1.83;;;27.00;55.10;;;;;;6169008;23;20009;-84
2022/09/05 16:05:18;;;;;;;2.10;2.00;;;27.00;55.10;;;;;;6168259;23;20008;-86
2022/09/05 16:07:46;;;;;;;2.33;2.13;;;27.00;55.70;;;;;;6166550;23;20055;-85
2022/09/05 16:10:19;;;;;;;2.25;1.50;;;26.90;55.60;;;;;;6166310;23;20009;-84
2022/09/05 16:12:48;;;;;;;1.60;1.42;;;26.80;55.20;;;;;;6164531;23;20009;-87
2022/09/05 16:15:28;;;;;;;3.53;1.50;;;26.60;54.90;;;;;;6168803;23;20036;-86
2022/09/05 16:18:08;;;;;;;2.45;1.90;;;26.30;55.40;;;;;;6186724;23;20019;-90
2022/09/05 16:20:48;;;;;;;1.77;1.67;;;26.00;56.10;;;;;;6177954;23;20009;-85
2022/09/05 16:23:21;;;;;;;1.30;1.20;;;25.80;56.70;;;;;;6165713;23;20084;-87
2022/09/05 16:25:59;;;;;;;2.20;2.00;;;25.60;57.20;;;;;;6192303;23;19997;-85
2022/09/05 16:28:36;;;;;;;2.80;2.13;;;25.60;57.40;;;;;;6171883;23;20005;-85
2022/09/05 16:31:10;;;;;;;1.73;1.67;;;25.60;57.80;;;;;;6168490;23;20443;-88
2022/09/05 16:33:38;;;;;;;1.80;1.70;;;25.60;58.00;;;;;;6196225;23;20001;-85
2022/09/05 16:36:10;;;;;;;1.67;1.58;;;25.60;58.00;;;;;;6172097;23;20016;-86